sensor_id;sensor_type;location;lat;lon;timestamp;temperature;humidity
21207;DHT22;10761;48.532;8.026;2022-09-01T00:00:23;15.70;99.90
21207;DHT22;10761;48.532;8.026;2022-09-01T00:02:54;15.70;99.90
21207;DHT22;10761;48.532;8.026;2022-09-01T00:05:19;15.80;99.90
21207;DHT22;10761;48.532;8.026;2022-09-01T00:07:45;15.80;99.90
21207;DHT22;10761;48.532;8.026;2022-09-01T00:10:11;15.80;99.90
21207;DHT22;10761;48.532;8.026;2022-09-01T00:12:37;15.80;99.90
21207;DHT22;10761;48.532;8.026;2022-09-01T00:15:06;15.70;99.90
21207;DHT22;10761;48.532;8.026;2022-09-01T00:17:32;15.70;99.90
21207;DHT22;10761;48.532;8.026;2022-09-01T00:19:59;15.80;99.90
21207;DHT22;10761;48.532;8.026;2022-09-01T00:22:24;15.70;99.90
21207;DHT22;10761;48.532;8.026;2022-09-01T00:24:50;15.70;99.90
21207;DHT22;10761;48.532;8.026;2022-09-01T00:27:16;15.80;99.90
21207;DHT22;10761;48.532;8.026;2022-09-01T00:29:42;15.80;99.90
21207;DHT22;10761;48.532;8.026;2022-09-01T00:32:08;15.80;99.90
21207;DHT22;10761;48.532;8.026;2022-09-01T00:34:33;15.80;99.90
21207;DHT22;10761;48.532;8.026;2022-09-01T00:36:59;15.80;99.90
21207;DHT22;10761;48.532;8.026;2022-09-01T00:39:25;15.80;99.90
21207;DHT22;10761;48.532;8.026;2022-09-01T00:41:50;15.80;99.90
21207;DHT22;10761;48.532;8.026;2022-09-01T00:44:18;15.80;99.90
21207;DHT22;10761;48.532;8.026;2022-09-01T00:46:49;15.80;99.90
21207;DHT22;10761;48.532;8.026;2022-09-01T00:49:20;15.70;99.90
21207;DHT22;10761;48.532;8.026;2022-09-01T00:51:53;15.70;99.90
21207;DHT22;10761;48.532;8.026;2022-09-01T00:54:28;15.70;99.90
21207;DHT22;10761;48.532;8.026;2022-09-01T00:56:55;15.70;99.90
21207;DHT22;10761;48.532;8.026;2022-09-01T00:59:23;15.70;99.90
21207;DHT22;10761;48.532;8.026;2022-09-01T01:01:49;15.70;99.90
21207;DHT22;10761;48.532;8.026;2022-09-01T01:04:15;15.70;99.90
21207;DHT22;10761;48.532;8.026;2022-09-01T01:06:52;15.70;99.90
21207;DHT22;10761;48.532;8.026;2022-09-01T01:09:29;15.60;99.90
21207;DHT22;10761;48.532;8.026;2022-09-01T01:11:58;15.50;99.90
21207;DHT22;10761;48.532;8.026;2022-09-01T01:14:25;15.50;99.90
21207;DHT22;10761;48.532;8.026;2022-09-01T01:16:53;15.50;99.90
21207;DHT22;10761;48.532;8.026;2022-09-01T01:22:21;15.30;99.90
21207;DHT22;10761;48.532;8.026;2022-09-01T01:25:09;15.30;99.90
21207;DHT22;10761;48.532;8.026;2022-09-01T01:27:38;15.30;99.90
21207;DHT22;10761;48.532;8.026;2022-09-01T01:30:09;15.20;99.90
21207;DHT22;10761;48.532;8.026;2022-09-01T01:32:37;15.20;99.90
21207;DHT22;10761;48.532;8.026;2022-09-01T01:35:07;15.20;99.90
21207;DHT22;10761;48.532;8.026;2022-09-01T01:37:42;15.20;99.90
21207;DHT22;10761;48.532;8.026;2022-09-01T01:40:10;15.30;99.90
21207;DHT22;10761;48.532;8.026;2022-09-01T01:42:45;15.30;99.90
21207;DHT22;10761;48.532;8.026;2022-09-01T01:45:13;15.20;99.90
21207;DHT22;10761;48.532;8.026;2022-09-01T01:47:42;15.20;99.90
21207;DHT22;10761;48.532;8.026;2022-09-01T01:50:12;15.10;99.90
21207;DHT22;10761;48.532;8.026;2022-09-01T01:52:39;15.00;99.90
21207;DHT22;10761;48.532;8.026;2022-09-01T01:55:05;15.00;99.90
21207;DHT22;10761;48.532;8.026;2022-09-01T01:57:35;14.90;99.90
21207;DHT22;10761;48.532;8.026;2022-09-01T02:00:02;14.90;99.90
21207;DHT22;10761;48.532;8.026;2022-09-01T02:02:28;14.80;99.90
21207;DHT22;10761;48.532;8.026;2022-09-01T02:04:53;14.80;99.90
21207;DHT22;10761;48.532;8.026;2022-09-01T02:07:19;14.70;99.90
21207;DHT22;10761;48.532;8.026;2022-09-01T02:09:45;14.70;99.90
21207;DHT22;10761;48.532;8.026;2022-09-01T02:12:12;14.60;99.90
21207;DHT22;10761;48.532;8.026;2022-09-01T02:14:38;14.50;99.90
21207;DHT22;10761;48.532;8.026;2022-09-01T02:17:04;14.50;99.90
21207;DHT22;10761;48.532;8.026;2022-09-01T02:19:32;14.50;99.90
21207;DHT22;10761;48.532;8.026;2022-09-01T02:22:02;14.50;99.90
21207;DHT22;10761;48.532;8.026;2022-09-01T02:24:28;14.50;99.90
21207;DHT22;10761;48.532;8.026;2022-09-01T02:26:56;14.50;99.90
21207;DHT22;10761;48.532;8.026;2022-09-01T02:29:25;14.40;99.90
21207;DHT22;10761;48.532;8.026;2022-09-01T02:31:55;14.50;99.90
21207;DHT22;10761;48.532;8.026;2022-09-01T02:34:22;14.40;99.90
21207;DHT22;10761;48.532;8.026;2022-09-01T02:36:51;14.40;99.90
21207;DHT22;10761;48.532;8.026;2022-09-01T02:39:22;14.30;99.90
21207;DHT22;10761;48.532;8.026;2022-09-01T02:41:49;14.30;99.90
21207;DHT22;10761;48.532;8.026;2022-09-01T02:44:15;14.30;99.90
21207;DHT22;10761;48.532;8.026;2022-09-01T02:46:45;14.30;99.90
21207;DHT22;10761;48.532;8.026;2022-09-01T02:49:14;14.30;99.90
21207;DHT22;10761;48.532;8.026;2022-09-01T02:51:48;14.30;99.90
21207;DHT22;10761;48.532;8.026;2022-09-01T02:54:18;14.30;99.90
21207;DHT22;10761;48.532;8.026;2022-09-01T02:56:47;14.30;99.90
21207;DHT22;10761;48.532;8.026;2022-09-01T02:59:15;14.20;99.90
21207;DHT22;10761;48.532;8.026;2022-09-01T03:01:41;14.20;99.90
21207;DHT22;10761;48.532;8.026;2022-09-01T03:04:10;14.20;99.90
21207;DHT22;10761;48.532;8.026;2022-09-01T03:06:38;14.20;99.90
21207;DHT22;10761;48.532;8.026;2022-09-01T03:09:07;14.20;99.90
21207;DHT22;10761;48.532;8.026;2022-09-01T03:11:35;14.20;99.90
21207;DHT22;10761;48.532;8.026;2022-09-01T03:14:02;14.20;99.90
21207;DHT22;10761;48.532;8.026;2022-09-01T03:16:28;14.20;99.90
21207;DHT22;10761;48.532;8.026;2022-09-01T03:18:57;14.10;99.90
21207;DHT22;10761;48.532;8.026;2022-09-01T03:21:23;14.20;99.90
21207;DHT22;10761;48.532;8.026;2022-09-01T03:23:51;14.20;99.90
21207;DHT22;10761;48.532;8.026;2022-09-01T03:26:18;14.10;99.90
21207;DHT22;10761;48.532;8.026;2022-09-01T03:28:47;14.10;99.90
21207;DHT22;10761;48.532;8.026;2022-09-01T03:31:14;14.10;99.90
21207;DHT22;10761;48.532;8.026;2022-09-01T03:33:40;14.10;99.90
21207;DHT22;10761;48.532;8.026;2022-09-01T03:36:06;14.00;99.90
21207;DHT22;10761;48.532;8.026;2022-09-01T03:38:32;14.00;99.90
21207;DHT22;10761;48.532;8.026;2022-09-01T03:41:05;13.90;99.90
21207;DHT22;10761;48.532;8.026;2022-09-01T03:43:32;13.90;99.90
21207;DHT22;10761;48.532;8.026;2022-09-01T03:45:58;14.00;99.90
21207;DHT22;10761;48.532;8.026;2022-09-01T03:48:26;14.10;99.90
21207;DHT22;10761;48.532;8.026;2022-09-01T03:50:54;14.10;99.90
21207;DHT22;10761;48.532;8.026;2022-09-01T03:53:22;14.10;99.90
21207;DHT22;10761;48.532;8.026;2022-09-01T03:55:48;14.00;99.90
21207;DHT22;10761;48.532;8.026;2022-09-01T03:58:16;14.00;99.90
21207;DHT22;10761;48.532;8.026;2022-09-01T04:00:52;13.90;99.90
21207;DHT22;10761;48.532;8.026;2022-09-01T04:03:25;13.90;99.90
21207;DHT22;10761;48.532;8.026;2022-09-01T04:05:53;13.80;99.90
21207;DHT22;10761;48.532;8.026;2022-09-01T04:08:20;13.80;99.90
21207;DHT22;10761;48.532;8.026;2022-09-01T04:10:53;13.70;99.90
21207;DHT22;10761;48.532;8.026;2022-09-01T04:13:23;13.70;99.90
21207;DHT22;10761;48.532;8.026;2022-09-01T04:15:49;13.70;99.90
21207;DHT22;10761;48.532;8.026;2022-09-01T04:18:16;13.70;99.90
21207;DHT22;10761;48.532;8.026;2022-09-01T04:20:58;13.70;99.90
21207;DHT22;10761;48.532;8.026;2022-09-01T04:23:25;13.60;99.90
21207;DHT22;10761;48.532;8.026;2022-09-01T04:25:54;13.60;99.90
21207;DHT22;10761;48.532;8.026;2022-09-01T04:28:22;13.50;99.90
21207;DHT22;10761;48.532;8.026;2022-09-01T04:30:54;13.50;99.90
21207;DHT22;10761;48.532;8.026;2022-09-01T04:33:21;13.60;99.90
21207;DHT22;10761;48.532;8.026;2022-09-01T04:35:48;13.60;99.90
21207;DHT22;10761;48.532;8.026;2022-09-01T04:38:15;13.50;99.90
21207;DHT22;10761;48.532;8.026;2022-09-01T04:40:42;13.50;99.90
21207;DHT22;10761;48.532;8.026;2022-09-01T04:43:08;13.50;99.90
21207;DHT22;10761;48.532;8.026;2022-09-01T04:45:35;13.50;99.90
21207;DHT22;10761;48.532;8.026;2022-09-01T04:48:02;13.50;99.90
21207;DHT22;10761;48.532;8.026;2022-09-01T04:50:28;13.40;99.90
21207;DHT22;10761;48.532;8.026;2022-09-01T04:52:57;13.40;99.90
21207;DHT22;10761;48.532;8.026;2022-09-01T04:55:25;13.40;99.90
21207;DHT22;10761;48.532;8.026;2022-09-01T04:57:52;13.30;99.90
21207;DHT22;10761;48.532;8.026;2022-09-01T05:00:20;13.30;99.90
21207;DHT22;10761;48.532;8.026;2022-09-01T05:02:51;13.30;99.90
21207;DHT22;10761;48.532;8.026;2022-09-01T05:05:19;13.30;99.90
21207;DHT22;10761;48.532;8.026;2022-09-01T05:07:45;13.40;99.90
21207;DHT22;10761;48.532;8.026;2022-09-01T05:10:11;13.40;99.90
21207;DHT22;10761;48.532;8.026;2022-09-01T05:12:37;13.40;99.90
21207;DHT22;10761;48.532;8.026;2022-09-01T05:15:03;13.40;99.90
21207;DHT22;10761;48.532;8.026;2022-09-01T05:17:33;13.50;99.90
21207;DHT22;10761;48.532;8.026;2022-09-01T05:20:04;13.50;99.90
21207;DHT22;10761;48.532;8.026;2022-09-01T05:22:30;13.50;99.90
21207;DHT22;10761;48.532;8.026;2022-09-01T05:24:57;13.60;99.90
21207;DHT22;10761;48.532;8.026;2022-09-01T05:27:27;13.70;99.90
21207;DHT22;10761;48.532;8.026;2022-09-01T05:29:55;13.70;99.90
21207;DHT22;10761;48.532;8.026;2022-09-01T05:32:24;13.80;99.90
21207;DHT22;10761;48.532;8.026;2022-09-01T05:34:52;13.90;99.90
21207;DHT22;10761;48.532;8.026;2022-09-01T05:37:18;14.10;99.90
21207;DHT22;10761;48.532;8.026;2022-09-01T05:39:45;14.10;99.90
21207;DHT22;10761;48.532;8.026;2022-09-01T05:42:11;14.20;99.90
21207;DHT22;10761;48.532;8.026;2022-09-01T05:44:38;14.20;99.90
21207;DHT22;10761;48.532;8.026;2022-09-01T05:47:08;14.20;99.90
21207;DHT22;10761;48.532;8.026;2022-09-01T05:49:36;14.40;99.90
21207;DHT22;10761;48.532;8.026;2022-09-01T05:52:04;14.40;99.90
21207;DHT22;10761;48.532;8.026;2022-09-01T05:54:33;14.50;99.90
21207;DHT22;10761;48.532;8.026;2022-09-01T05:56:59;14.50;99.90
21207;DHT22;10761;48.532;8.026;2022-09-01T05:59:26;14.60;99.90
21207;DHT22;10761;48.532;8.026;2022-09-01T06:01:55;14.70;99.90
21207;DHT22;10761;48.532;8.026;2022-09-01T06:04:22;14.80;99.90
21207;DHT22;10761;48.532;8.026;2022-09-01T06:06:50;15.00;99.90
21207;DHT22;10761;48.532;8.026;2022-09-01T06:09:16;15.10;99.90
21207;DHT22;10761;48.532;8.026;2022-09-01T06:11:48;15.20;99.90
21207;DHT22;10761;48.532;8.026;2022-09-01T06:14:15;15.40;99.90
21207;DHT22;10761;48.532;8.026;2022-09-01T06:16:41;15.70;99.90
21207;DHT22;10761;48.532;8.026;2022-09-01T06:19:08;15.90;99.90
21207;DHT22;10761;48.532;8.026;2022-09-01T06:21:36;16.10;99.90
21207;DHT22;10761;48.532;8.026;2022-09-01T06:24:03;16.40;99.90
21207;DHT22;10761;48.532;8.026;2022-09-01T06:26:34;16.60;99.90
21207;DHT22;10761;48.532;8.026;2022-09-01T06:29:02;16.70;99.90
21207;DHT22;10761;48.532;8.026;2022-09-01T06:31:33;16.80;99.90
21207;DHT22;10761;48.532;8.026;2022-09-01T06:34:01;16.90;99.90
21207;DHT22;10761;48.532;8.026;2022-09-01T06:36:28;16.80;99.90
21207;DHT22;10761;48.532;8.026;2022-09-01T06:38:57;16.80;99.90
21207;DHT22;10761;48.532;8.026;2022-09-01T06:41:24;17.00;99.90
21207;DHT22;10761;48.532;8.026;2022-09-01T06:43:51;17.30;99.90
21207;DHT22;10761;48.532;8.026;2022-09-01T06:46:19;17.50;99.90
21207;DHT22;10761;48.532;8.026;2022-09-01T06:48:46;17.70;99.90
21207;DHT22;10761;48.532;8.026;2022-09-01T06:51:20;17.90;99.90
21207;DHT22;10761;48.532;8.026;2022-09-01T06:53:48;18.00;99.90
21207;DHT22;10761;48.532;8.026;2022-09-01T06:56:28;18.10;99.90
21207;DHT22;10761;48.532;8.026;2022-09-01T06:58:56;18.10;99.90
21207;DHT22;10761;48.532;8.026;2022-09-01T07:01:23;18.40;99.90
21207;DHT22;10761;48.532;8.026;2022-09-01T07:03:52;18.80;99.90
21207;DHT22;10761;48.532;8.026;2022-09-01T07:06:20;19.10;99.90
21207;DHT22;10761;48.532;8.026;2022-09-01T07:08:55;19.50;99.90
21207;DHT22;10761;48.532;8.026;2022-09-01T07:11:23;20.10;99.90
21207;DHT22;10761;48.532;8.026;2022-09-01T07:13:50;20.70;99.90
21207;DHT22;10761;48.532;8.026;2022-09-01T07:16:21;21.10;99.90
21207;DHT22;10761;48.532;8.026;2022-09-01T07:18:52;21.30;99.90
21207;DHT22;10761;48.532;8.026;2022-09-01T07:21:18;21.40;99.90
21207;DHT22;10761;48.532;8.026;2022-09-01T07:23:45;21.50;99.90
21207;DHT22;10761;48.532;8.026;2022-09-01T07:26:11;21.70;99.90
21207;DHT22;10761;48.532;8.026;2022-09-01T07:28:43;21.70;99.90
21207;DHT22;10761;48.532;8.026;2022-09-01T07:31:16;21.80;99.90
21207;DHT22;10761;48.532;8.026;2022-09-01T07:33:45;22.10;99.90
21207;DHT22;10761;48.532;8.026;2022-09-01T07:36:14;22.20;99.90
21207;DHT22;10761;48.532;8.026;2022-09-01T07:38:40;22.10;99.90
21207;DHT22;10761;48.532;8.026;2022-09-01T07:41:08;22.20;99.90
21207;DHT22;10761;48.532;8.026;2022-09-01T07:43:35;22.50;99.90
21207;DHT22;10761;48.532;8.026;2022-09-01T07:46:02;22.50;99.90
21207;DHT22;10761;48.532;8.026;2022-09-01T07:48:29;22.20;99.90
21207;DHT22;10761;48.532;8.026;2022-09-01T07:50:55;22.40;99.90
21207;DHT22;10761;48.532;8.026;2022-09-01T07:53:27;22.70;99.90
21207;DHT22;10761;48.532;8.026;2022-09-01T07:55:58;23.10;99.90
21207;DHT22;10761;48.532;8.026;2022-09-01T07:58:26;23.20;99.90
21207;DHT22;10761;48.532;8.026;2022-09-01T08:00:53;23.60;99.90
21207;DHT22;10761;48.532;8.026;2022-09-01T08:03:22;24.10;99.90
21207;DHT22;10761;48.532;8.026;2022-09-01T08:05:48;24.20;99.90
21207;DHT22;10761;48.532;8.026;2022-09-01T08:08:18;24.40;99.90
21207;DHT22;10761;48.532;8.026;2022-09-01T08:10:45;24.30;99.90
21207;DHT22;10761;48.532;8.026;2022-09-01T08:13:11;24.70;99.90
21207;DHT22;10761;48.532;8.026;2022-09-01T08:15:38;25.10;99.90
21207;DHT22;10761;48.532;8.026;2022-09-01T08:18:05;25.30;99.90
21207;DHT22;10761;48.532;8.026;2022-09-01T08:20:31;25.40;99.90
21207;DHT22;10761;48.532;8.026;2022-09-01T08:22:59;25.50;99.90
21207;DHT22;10761;48.532;8.026;2022-09-01T08:25:25;25.00;99.90
21207;DHT22;10761;48.532;8.026;2022-09-01T08:27:51;25.10;99.90
21207;DHT22;10761;48.532;8.026;2022-09-01T08:30:17;24.90;99.90
21207;DHT22;10761;48.532;8.026;2022-09-01T08:32:43;24.90;99.90
21207;DHT22;10761;48.532;8.026;2022-09-01T08:35:10;24.30;99.90
21207;DHT22;10761;48.532;8.026;2022-09-01T08:37:37;24.20;99.90
21207;DHT22;10761;48.532;8.026;2022-09-01T08:40:07;24.30;99.90
21207;DHT22;10761;48.532;8.026;2022-09-01T08:42:57;24.30;99.90
21207;DHT22;10761;48.532;8.026;2022-09-01T08:45:31;24.10;99.90
21207;DHT22;10761;48.532;8.026;2022-09-01T08:48:05;24.50;99.90
21207;DHT22;10761;48.532;8.026;2022-09-01T08:50:32;24.50;99.90
21207;DHT22;10761;48.532;8.026;2022-09-01T08:53:21;24.40;99.90
21207;DHT22;10761;48.532;8.026;2022-09-01T08:55:51;24.50;99.90
21207;DHT22;10761;48.532;8.026;2022-09-01T08:58:19;24.90;99.90
21207;DHT22;10761;48.532;8.026;2022-09-01T09:00:53;25.10;99.90
21207;DHT22;10761;48.532;8.026;2022-09-01T09:03:30;25.20;99.90
21207;DHT22;10761;48.532;8.026;2022-09-01T09:08:59;25.70;99.90
21207;DHT22;10761;48.532;8.026;2022-09-01T09:16:55;25.00;99.90
21207;DHT22;10761;48.532;8.026;2022-09-01T09:19:25;25.10;99.90
21207;DHT22;10761;48.532;8.026;2022-09-01T09:21:55;25.30;99.90
21207;DHT22;10761;48.532;8.026;2022-09-01T09:29:54;25.90;99.90
21207;DHT22;10761;48.532;8.026;2022-09-01T09:32:22;26.20;99.90
21207;DHT22;10761;48.532;8.026;2022-09-01T09:34:48;25.90;99.90
21207;DHT22;10761;48.532;8.026;2022-09-01T09:37:27;26.20;99.90
21207;DHT22;10761;48.532;8.026;2022-09-01T09:42:35;25.70;99.90
21207;DHT22;10761;48.532;8.026;2022-09-01T09:45:06;25.30;99.90
21207;DHT22;10761;48.532;8.026;2022-09-01T09:47:43;25.60;99.90
21207;DHT22;10761;48.532;8.026;2022-09-01T09:50:14;26.20;99.90
21207;DHT22;10761;48.532;8.026;2022-09-01T09:52:41;26.20;99.90
21207;DHT22;10761;48.532;8.026;2022-09-01T09:57:50;26.80;99.90
21207;DHT22;10761;48.532;8.026;2022-09-01T10:00:30;26.00;99.90
21207;DHT22;10761;48.532;8.026;2022-09-01T10:03:05;25.60;99.90
21207;DHT22;10761;48.532;8.026;2022-09-01T10:10:54;26.40;99.90
21207;DHT22;10761;48.532;8.026;2022-09-01T10:13:22;26.50;99.90
21207;DHT22;10761;48.532;8.026;2022-09-01T10:15:57;26.60;99.90
21207;DHT22;10761;48.532;8.026;2022-09-01T10:18:28;26.50;99.90
21207;DHT22;10761;48.532;8.026;2022-09-01T10:21:02;26.70;99.90
21207;DHT22;10761;48.532;8.026;2022-09-01T10:23:29;27.10;99.90
21207;DHT22;10761;48.532;8.026;2022-09-01T10:26:01;27.50;99.90
21207;DHT22;10761;48.532;8.026;2022-09-01T10:28:31;27.60;99.90
21207;DHT22;10761;48.532;8.026;2022-09-01T10:30:58;27.70;99.90
21207;DHT22;10761;48.532;8.026;2022-09-01T10:33:25;27.70;99.90
21207;DHT22;10761;48.532;8.026;2022-09-01T10:35:52;27.50;99.90
21207;DHT22;10761;48.532;8.026;2022-09-01T10:38:21;27.60;99.90
21207;DHT22;10761;48.532;8.026;2022-09-01T10:40:50;27.40;99.90
21207;DHT22;10761;48.532;8.026;2022-09-01T10:43:43;27.50;99.90
21207;DHT22;10761;48.532;8.026;2022-09-01T10:48:44;27.00;99.90
21207;DHT22;10761;48.532;8.026;2022-09-01T10:53:42;26.90;99.90
21207;DHT22;10761;48.532;8.026;2022-09-01T10:58:48;26.60;99.90
21207;DHT22;10761;48.532;8.026;2022-09-01T11:04:14;27.50;99.90
21207;DHT22;10761;48.532;8.026;2022-09-01T11:09:26;27.30;99.90
21207;DHT22;10761;48.532;8.026;2022-09-01T11:14:59;28.40;99.90
21207;DHT22;10761;48.532;8.026;2022-09-01T11:17:37;28.60;99.90
21207;DHT22;10761;48.532;8.026;2022-09-01T11:22:38;28.40;99.90
21207;DHT22;10761;48.532;8.026;2022-09-01T11:25:10;27.80;99.90
21207;DHT22;10761;48.532;8.026;2022-09-01T11:30:20;27.70;99.90
21207;DHT22;10761;48.532;8.026;2022-09-01T11:32:49;27.50;99.90
21207;DHT22;10761;48.532;8.026;2022-09-01T11:35:19;27.70;99.90
21207;DHT22;10761;48.532;8.026;2022-09-01T11:37:51;28.20;99.90
21207;DHT22;10761;48.532;8.026;2022-09-01T11:40:25;28.10;99.90
21207;DHT22;10761;48.532;8.026;2022-09-01T11:42:52;28.30;99.90
21207;DHT22;10761;48.532;8.026;2022-09-01T11:45:24;28.70;99.90
21207;DHT22;10761;48.532;8.026;2022-09-01T11:47:56;29.20;99.90
21207;DHT22;10761;48.532;8.026;2022-09-01T11:53:11;30.00;99.90
21207;DHT22;10761;48.532;8.026;2022-09-01T11:55:47;30.30;99.90
21207;DHT22;10761;48.532;8.026;2022-09-01T11:58:32;30.60;99.90
21207;DHT22;10761;48.532;8.026;2022-09-01T12:01:22;30.80;99.00
21207;DHT22;10761;48.532;8.026;2022-09-01T12:03:55;29.90;99.50
21207;DHT22;10761;48.532;8.026;2022-09-01T12:06:25;29.30;99.90
21207;DHT22;10761;48.532;8.026;2022-09-01T12:08:57;29.50;99.90
21207;DHT22;10761;48.532;8.026;2022-09-01T12:11:27;30.00;97.90
21207;DHT22;10761;48.532;8.026;2022-09-01T12:14:03;30.40;96.50
21207;DHT22;10761;48.532;8.026;2022-09-01T12:16:31;30.60;97.50
21207;DHT22;10761;48.532;8.026;2022-09-01T12:18:59;30.80;95.90
21207;DHT22;10761;48.532;8.026;2022-09-01T12:21:34;31.40;94.70
21207;DHT22;10761;48.532;8.026;2022-09-01T12:24:22;31.80;93.50
21207;DHT22;10761;48.532;8.026;2022-09-01T12:26:51;32.10;92.30
21207;DHT22;10761;48.532;8.026;2022-09-01T12:29:18;32.20;91.90
21207;DHT22;10761;48.532;8.026;2022-09-01T12:31:47;32.00;90.20
21207;DHT22;10761;48.532;8.026;2022-09-01T12:39:50;33.00;91.70
21207;DHT22;10761;48.532;8.026;2022-09-01T12:44:57;32.20;88.70
21207;DHT22;10761;48.532;8.026;2022-09-01T12:52:33;30.00;90.70
21207;DHT22;10761;48.532;8.026;2022-09-01T13:00:18;30.50;92.40
21207;DHT22;10761;48.532;8.026;2022-09-01T13:08:09;30.90;90.10
21207;DHT22;10761;48.532;8.026;2022-09-01T13:10:39;30.60;91.40
21207;DHT22;10761;48.532;8.026;2022-09-01T13:13:07;31.20;90.80
21207;DHT22;10761;48.532;8.026;2022-09-01T13:15:35;31.70;90.90
21207;DHT22;10761;48.532;8.026;2022-09-01T13:18:01;32.00;90.00
21207;DHT22;10761;48.532;8.026;2022-09-01T13:20:27;31.70;88.50
21207;DHT22;10761;48.532;8.026;2022-09-01T13:22:52;31.50;89.80
21207;DHT22;10761;48.532;8.026;2022-09-01T13:25:20;31.90;87.70
21207;DHT22;10761;48.532;8.026;2022-09-01T13:27:46;31.40;87.30
21207;DHT22;10761;48.532;8.026;2022-09-01T13:30:18;31.30;88.40
21207;DHT22;10761;48.532;8.026;2022-09-01T13:32:44;31.80;89.30
21207;DHT22;10761;48.532;8.026;2022-09-01T13:35:11;32.50;87.20
21207;DHT22;10761;48.532;8.026;2022-09-01T13:37:37;32.30;82.70
21207;DHT22;10761;48.532;8.026;2022-09-01T13:40:05;31.70;84.00
21207;DHT22;10761;48.532;8.026;2022-09-01T13:43:00;31.00;85.30
21207;DHT22;10761;48.532;8.026;2022-09-01T13:45:28;31.80;85.60
21207;DHT22;10761;48.532;8.026;2022-09-01T13:47:54;32.80;85.00
21207;DHT22;10761;48.532;8.026;2022-09-01T13:50:21;33.50;83.00
21207;DHT22;10761;48.532;8.026;2022-09-01T13:52:51;34.10;79.60
21207;DHT22;10761;48.532;8.026;2022-09-01T13:55:23;34.40;78.70
21207;DHT22;10761;48.532;8.026;2022-09-01T13:57:49;34.90;78.70
21207;DHT22;10761;48.532;8.026;2022-09-01T14:00:18;34.70;73.50
21207;DHT22;10761;48.532;8.026;2022-09-01T14:02:46;34.50;72.70
21207;DHT22;10761;48.532;8.026;2022-09-01T14:05:14;34.50;76.10
21207;DHT22;10761;48.532;8.026;2022-09-01T14:07:40;34.40;76.00
21207;DHT22;10761;48.532;8.026;2022-09-01T14:10:06;33.70;76.50
21207;DHT22;10761;48.532;8.026;2022-09-01T14:12:33;32.80;78.80
21207;DHT22;10761;48.532;8.026;2022-09-01T14:14:59;32.40;80.90
21207;DHT22;10761;48.532;8.026;2022-09-01T14:17:25;31.80;78.50
21207;DHT22;10761;48.532;8.026;2022-09-01T14:19:51;32.40;81.20
21207;DHT22;10761;48.532;8.026;2022-09-01T14:22:16;32.90;80.30
21207;DHT22;10761;48.532;8.026;2022-09-01T14:24:42;32.70;78.80
21207;DHT22;10761;48.532;8.026;2022-09-01T14:27:08;33.20;77.30
21207;DHT22;10761;48.532;8.026;2022-09-01T14:29:34;33.50;76.30
21207;DHT22;10761;48.532;8.026;2022-09-01T14:32:01;33.70;74.60
21207;DHT22;10761;48.532;8.026;2022-09-01T14:34:28;33.40;73.70
21207;DHT22;10761;48.532;8.026;2022-09-01T14:36:55;33.30;74.10
21207;DHT22;10761;48.532;8.026;2022-09-01T14:39:23;33.40;74.90
21207;DHT22;10761;48.532;8.026;2022-09-01T14:41:48;32.90;73.20
21207;DHT22;10761;48.532;8.026;2022-09-01T14:44:14;32.60;75.20
21207;DHT22;10761;48.532;8.026;2022-09-01T14:46:40;32.20;74.40
21207;DHT22;10761;48.532;8.026;2022-09-01T14:49:05;32.80;74.00
21207;DHT22;10761;48.532;8.026;2022-09-01T14:51:32;32.80;73.70
21207;DHT22;10761;48.532;8.026;2022-09-01T14:53:58;32.50;75.40
21207;DHT22;10761;48.532;8.026;2022-09-01T14:56:24;31.60;76.00
21207;DHT22;10761;48.532;8.026;2022-09-01T14:58:51;31.60;77.30
21207;DHT22;10761;48.532;8.026;2022-09-01T15:01:19;31.80;77.40
21207;DHT22;10761;48.532;8.026;2022-09-01T15:03:50;31.90;75.00
21207;DHT22;10761;48.532;8.026;2022-09-01T15:06:17;32.10;76.50
21207;DHT22;10761;48.532;8.026;2022-09-01T15:08:43;32.70;75.80
21207;DHT22;10761;48.532;8.026;2022-09-01T15:11:17;33.70;72.50
21207;DHT22;10761;48.532;8.026;2022-09-01T15:13:43;34.10;71.90
21207;DHT22;10761;48.532;8.026;2022-09-01T15:16:28;34.60;70.40
21207;DHT22;10761;48.532;8.026;2022-09-01T15:18:54;34.40;68.90
21207;DHT22;10761;48.532;8.026;2022-09-01T15:21:28;34.20;71.60
21207;DHT22;10761;48.532;8.026;2022-09-01T15:23:55;34.00;69.50
21207;DHT22;10761;48.532;8.026;2022-09-01T15:26:21;33.90;70.60
21207;DHT22;10761;48.532;8.026;2022-09-01T15:28:48;33.90;69.10
21207;DHT22;10761;48.532;8.026;2022-09-01T15:31:15;33.30;69.10
21207;DHT22;10761;48.532;8.026;2022-09-01T15:33:43;32.50;70.50
21207;DHT22;10761;48.532;8.026;2022-09-01T15:36:18;31.50;71.70
21207;DHT22;10761;48.532;8.026;2022-09-01T15:38:44;30.80;74.60
21207;DHT22;10761;48.532;8.026;2022-09-01T15:41:15;30.70;74.90
21207;DHT22;10761;48.532;8.026;2022-09-01T15:43:41;30.90;74.00
21207;DHT22;10761;48.532;8.026;2022-09-01T15:46:06;30.80;74.20
21207;DHT22;10761;48.532;8.026;2022-09-01T15:48:32;30.50;75.20
21207;DHT22;10761;48.532;8.026;2022-09-01T15:53:46;29.60;76.40
21207;DHT22;10761;48.532;8.026;2022-09-01T15:56:12;29.70;76.90
21207;DHT22;10761;48.532;8.026;2022-09-01T15:58:37;29.90;76.20
21207;DHT22;10761;48.532;8.026;2022-09-01T16:01:03;30.20;74.20
21207;DHT22;10761;48.532;8.026;2022-09-01T16:03:28;30.40;75.00
21207;DHT22;10761;48.532;8.026;2022-09-01T16:05:59;30.50;74.60
21207;DHT22;10761;48.532;8.026;2022-09-01T16:08:25;30.70;75.50
21207;DHT22;10761;48.532;8.026;2022-09-01T16:10:50;30.80;75.40
21207;DHT22;10761;48.532;8.026;2022-09-01T16:13:16;30.40;76.70
21207;DHT22;10761;48.532;8.026;2022-09-01T16:15:47;29.80;76.70
21207;DHT22;10761;48.532;8.026;2022-09-01T16:18:28;29.20;77.90
21207;DHT22;10761;48.532;8.026;2022-09-01T16:23:28;27.60;82.20
21207;DHT22;10761;48.532;8.026;2022-09-01T16:25:59;27.20;83.40
21207;DHT22;10761;48.532;8.026;2022-09-01T16:28:34;26.90;84.10
21207;DHT22;10761;48.532;8.026;2022-09-01T16:31:10;26.60;85.10
21207;DHT22;10761;48.532;8.026;2022-09-01T16:33:36;26.60;86.00
21207;DHT22;10761;48.532;8.026;2022-09-01T16:38:53;26.70;86.80
21207;DHT22;10761;48.532;8.026;2022-09-01T16:41:37;27.00;85.90
21207;DHT22;10761;48.532;8.026;2022-09-01T16:44:35;27.30;85.10
21207;DHT22;10761;48.532;8.026;2022-09-01T16:55:37;27.00;85.30
21207;DHT22;10761;48.532;8.026;2022-09-01T17:00:49;26.40;86.00
21207;DHT22;10761;48.532;8.026;2022-09-01T17:03:24;26.20;87.50
21207;DHT22;10761;48.532;8.026;2022-09-01T17:06:00;25.90;87.90
21207;DHT22;10761;48.532;8.026;2022-09-01T17:08:30;25.70;89.40
21207;DHT22;10761;48.532;8.026;2022-09-01T17:11:09;25.60;90.10
21207;DHT22;10761;48.532;8.026;2022-09-01T17:13:49;25.60;90.00
21207;DHT22;10761;48.532;8.026;2022-09-01T17:16:33;25.60;90.60